Time;durP1;ratioP1;P1;durP2;ratioP2;P2;SDS_P1;SDS_P2;PMS_P1;PMS_P2;Temp;Humidity;BMP_temperature;BMP_pressure;BME280_temperature;BME280_humidity;BME280_pressure;Samples;Min_cycle;Max_cycle;Signal;HPM_P1;HPM_P2
2022/01/01 00:00:37;;;;;;;28.38;5.50;;;;;;;;;;5074441;28;20123;-38
2022/01/01 00:03:02;;;;;;;22.92;6.78;;;;;;;;;;5074196;28;20021;-37
2022/01/01 00:05:28;;;;;;;16.35;5.18;;;;;;;;;;5074521;28;20490;-38
2022/01/01 00:07:53;;;;;;;14.00;5.00;;;;;;;;;;5074252;28;20021;-38
2022/01/01 00:10:21;;;;;;;14.68;4.65;;;;;;;;;;5074183;28;20051;-38
2022/01/01 00:12:47;;;;;;;10.30;3.78;;;;;;;;;;5074165;28;20020;-37
2022/01/01 00:15:13;;;;;;;13.77;4.90;;;;;;;;;;5074148;28;20035;-38
2022/01/01 00:17:40;;;;;;;11.35;3.92;;;;;;;;;;5074351;28;20056;-37
2022/01/01 00:20:06;;;;;;;13.07;4.82;;;;;;;;;;5072918;28;20094;-38
2022/01/01 00:22:31;;;;;;;10.80;3.20;;;;;;;;;;5073892;28;20541;-38
2022/01/01 00:24:57;;;;;;;5.50;3.03;;;;;;;;;;5074164;28;20035;-37
2022/01/01 00:27:22;;;;;;;9.02;3.05;;;;;;;;;;5073792;28;20463;-37
2022/01/01 00:29:48;;;;;;;3.67;1.80;;;;;;;;;;5073815;28;20028;-38
2022/01/01 00:32:13;;;;;;;4.68;2.40;;;;;;;;;;5073740;28;20423;-37
2022/01/01 00:34:39;;;;;;;4.82;1.60;;;;;;;;;;5073743;28;20029;-37
2022/01/01 00:37:05;;;;;;;4.78;2.28;;;;;;;;;;5073913;28;20391;-38
2022/01/01 00:39:30;;;;;;;3.85;1.50;;;;;;;;;;5073381;28;20402;-37
2022/01/01 00:41:56;;;;;;;4.93;2.10;;;;;;;;;;5073418;28;20036;-38
2022/01/01 00:44:21;;;;;;;4.82;2.65;;;;;;;;;;5073628;28;20104;-37
2022/01/01 00:46:46;;;;;;;3.85;2.65;;;;;;;;;;5073466;28;20036;-37
2022/01/01 00:49:12;;;;;;;3.78;2.75;;;;;;;;;;5073388;28;20032;-37
2022/01/01 00:51:38;;;;;;;11.05;2.40;;;;;;;;;;5072021;28;20029;-38
2022/01/01 00:54:04;;;;;;;2.85;1.90;;;;;;;;;;5073635;28;20391;-38
2022/01/01 00:56:29;;;;;;;4.50;2.72;;;;;;;;;;5073321;28;20451;-37
2022/01/01 00:58:55;;;;;;;3.00;2.22;;;;;;;;;;5073127;28;20032;-38
2022/01/01 01:01:20;;;;;;;3.40;1.67;;;;;;;;;;5073152;28;20044;-37
2022/01/01 01:03:46;;;;;;;2.55;1.70;;;;;;;;;;5073136;28;20041;-37
2022/01/01 01:06:13;;;;;;;3.13;1.70;;;;;;;;;;5073036;28;20048;-38
2022/01/01 01:08:40;;;;;;;3.97;2.00;;;;;;;;;;5073153;28;20048;-37
2022/01/01 01:11:08;;;;;;;3.92;2.42;;;;;;;;;;5073188;28;20024;-37
2022/01/01 01:13:34;;;;;;;5.43;2.95;;;;;;;;;;5073338;28;20036;-37
2022/01/01 01:16:00;;;;;;;7.25;3.78;;;;;;;;;;5072875;28;20031;-38
2022/01/01 01:18:26;;;;;;;7.07;2.83;;;;;;;;;;5072857;28;20107;-38
2022/01/01 01:20:51;;;;;;;3.20;1.75;;;;;;;;;;5073023;28;20394;-38
2022/01/01 01:23:16;;;;;;;6.13;2.60;;;;;;;;;;5072611;28;20028;-38
2022/01/01 01:25:42;;;;;;;7.90;3.72;;;;;;;;;;5072993;28;20021;-37
2022/01/01 01:28:08;;;;;;;7.07;2.75;;;;;;;;;;5088232;28;20098;-37
2022/01/01 01:30:34;;;;;;;4.15;2.17;;;;;;;;;;5072410;28;20035;-38
2022/01/01 01:33:00;;;;;;;6.03;3.08;;;;;;;;;;5072564;28;20099;-38
2022/01/01 01:35:25;;;;;;;5.10;1.92;;;;;;;;;;5072844;28;20108;-38
2022/01/01 01:37:51;;;;;;;7.93;2.50;;;;;;;;;;5072781;28;20060;-37
2022/01/01 01:40:16;;;;;;;3.05;2.10;;;;;;;;;;5072157;28;20478;-37
2022/01/01 01:42:44;;;;;;;7.63;2.88;;;;;;;;;;5088290;28;20021;-38
2022/01/01 01:45:15;;;;;;;4.53;2.55;;;;;;;;;;5072323;28;20021;-38
2022/01/01 01:47:41;;;;;;;3.80;2.50;;;;;;;;;;5072261;28;20028;-37
2022/01/01 01:50:07;;;;;;;6.90;2.75;;;;;;;;;;5072442;28;20070;-39
2022/01/01 01:52:36;;;;;;;7.82;2.65;;;;;;;;;;5072227;28;20032;-37
2022/01/01 01:55:04;;;;;;;5.57;2.80;;;;;;;;;;5072026;28;20526;-37
2022/01/01 01:57:30;;;;;;;10.02;3.65;;;;;;;;;;5072156;28;20032;-38
2022/01/01 01:59:55;;;;;;;31.13;8.48;;;;;;;;;;5072079;28;20041;-37
2022/01/01 02:02:21;;;;;;;22.98;6.15;;;;;;;;;;5072039;28;20395;-37
2022/01/01 02:04:46;;;;;;;21.95;6.05;;;;;;;;;;5072059;28;20055;-37
2022/01/01 02:07:12;;;;;;;10.80;4.50;;;;;;;;;;5071776;28;20063;-38
2022/01/01 02:09:38;;;;;;;8.27;4.20;;;;;;;;;;5072214;28;20046;-41
2022/01/01 02:12:04;;;;;;;5.75;2.78;;;;;;;;;;5072137;28;20623;-38
2022/01/01 02:14:51;;;;;;;10.35;3.08;;;;;;;;;;5070549;28;20082;-38
2022/01/01 02:17:17;;;;;;;3.97;2.25;;;;;;;;;;5071862;28;20071;-38
2022/01/01 02:19:49;;;;;;;8.77;2.92;;;;;;;;;;5071720;28;20474;-37
2022/01/01 02:22:15;;;;;;;;;;;;;;;;;;5071972;28;20536;-38
2022/01/01 02:24:40;;;;;;;4.95;2.70;;;;;;;;;;5071648;28;19908;-37
2022/01/01 02:27:06;;;;;;;4.75;2.17;;;;;;;;;;5071639;28;20039;-38
2022/01/01 02:29:31;;;;;;;11.68;3.13;;;;;;;;;;5071476;28;20052;-38
2022/01/01 02:31:57;;;;;;;7.38;2.58;;;;;;;;;;5071760;28;20024;-38
2022/01/01 02:34:22;;;;;;;3.20;1.52;;;;;;;;;;5071842;28;20081;-38
2022/01/01 02:36:48;;;;;;;5.38;2.20;;;;;;;;;;5071454;28;20470;-38
2022/01/01 02:39:13;;;;;;;3.35;1.30;;;;;;;;;;5071407;28;20505;-37
2022/01/01 02:41:39;;;;;;;3.53;1.90;;;;;;;;;;5071165;28;20441;-38
2022/01/01 02:44:06;;;;;;;2.40;1.73;;;;;;;;;;5071074;28;20032;-38
2022/01/01 02:46:32;;;;;;;10.27;2.00;;;;;;;;;;5071379;28;20066;-37
2022/01/01 02:48:57;;;;;;;1.40;1.30;;;;;;;;;;5071582;28;20029;-38
2022/01/01 02:51:23;;;;;;;4.80;1.70;;;;;;;;;;5071272;28;20029;-37
2022/01/01 02:53:48;;;;;;;6.45;1.98;;;;;;;;;;5070356;28;20034;-37
2022/01/01 02:56:13;;;;;;;3.00;1.58;;;;;;;;;;5086718;28;20024;-37
2022/01/01 02:58:40;;;;;;;3.25;1.75;;;;;;;;;;5071269;28;20025;-38
2022/01/01 03:01:05;;;;;;;4.85;1.80;;;;;;;;;;5071313;28;20047;-38
2022/01/01 03:03:30;;;;;;;4.53;1.83;;;;;;;;;;5086845;28;20103;-38
2022/01/01 03:05:56;;;;;;;3.60;1.88;;;;;;;;;;5071037;28;20029;-38
2022/01/01 03:08:21;;;;;;;3.97;1.90;;;;;;;;;;5071260;28;20024;-37
2022/01/01 03:10:47;;;;;;;5.88;2.25;;;;;;;;;;5086956;28;20414;-38
2022/01/01 03:13:12;;;;;;;2.88;1.95;;;;;;;;;;5070933;28;20017;-38
2022/01/01 03:15:38;;;;;;;4.25;2.00;;;;;;;;;;5071474;28;20028;-38
2022/01/01 03:18:03;;;;;;;4.28;2.10;;;;;;;;;;5071220;28;20398;-38
2022/01/01 03:20:29;;;;;;;1.80;1.52;;;;;;;;;;5071029;28;20037;-37
2022/01/01 03:22:54;;;;;;;2.03;1.20;;;;;;;;;;5071417;28;20544;-38
2022/01/01 03:25:20;;;;;;;2.72;1.80;;;;;;;;;;5071154;28;20029;-37
2022/01/01 03:27:45;;;;;;;1.85;1.30;;;;;;;;;;5071016;28;20569;-37
2022/01/01 03:30:11;;;;;;;4.15;1.55;;;;;;;;;;5070873;28;20041;-37
2022/01/01 03:32:36;;;;;;;3.50;2.22;;;;;;;;;;5071154;28;20050;-37
2022/01/01 03:35:02;;;;;;;2.10;1.40;;;;;;;;;;5071163;28;20028;-38
2022/01/01 03:37:29;;;;;;;4.75;2.55;;;;;;;;;;5070935;28;20035;-39
2022/01/01 03:39:55;;;;;;;2.65;2.25;;;;;;;;;;5086178;28;20102;-38
2022/01/01 03:42:20;;;;;;;2.10;1.90;;;;;;;;;;5070796;28;20064;-37
2022/01/01 03:44:46;;;;;;;2.80;1.83;;;;;;;;;;5071059;28;20035;-41
2022/01/01 03:47:11;;;;;;;3.78;2.20;;;;;;;;;;5070977;28;20024;-38
2022/01/01 03:49:37;;;;;;;2.75;1.80;;;;;;;;;;5071052;28;20074;-37
2022/01/01 03:52:02;;;;;;;4.10;2.13;;;;;;;;;;5070633;28;20032;-38
2022/01/01 03:54:28;;;;;;;3.35;1.77;;;;;;;;;;5072716;28;20074;-37
2022/01/01 03:56:53;;;;;;;3.00;1.83;;;;;;;;;;5074438;28;20020;-37
2022/01/01 03:59:20;;;;;;;2.38;1.88;;;;;;;;;;5074581;28;20077;-37
2022/01/01 04:01:45;;;;;;;2.10;1.40;;;;;;;;;;5074136;28;20036;-37
2022/01/01 04:04:11;;;;;;;4.47;2.10;;;;;;;;;;5074165;28;20033;-37
2022/01/01 04:06:36;;;;;;;2.17;1.70;;;;;;;;;;5074264;28;20025;-37
2022/01/01 04:09:02;;;;;;;3.63;1.95;;;;;;;;;;5074107;28;20078;-37
2022/01/01 04:11:27;;;;;;;3.63;2.08;;;;;;;;;;5074127;28;20135;-37
2022/01/01 04:13:52;;;;;;;2.08;1.48;;;;;;;;;;5074396;28;20038;-38
2022/01/01 04:16:19;;;;;;;2.65;1.55;;;;;;;;;;5073951;28;20470;-37
2022/01/01 04:18:45;;;;;;;2.15;1.45;;;;;;;;;;5074162;28;20115;-38
2022/01/01 04:21:11;;;;;;;3.50;2.08;;;;;;;;;;5073746;28;20474;-37
2022/01/01 04:23:38;;;;;;;2.70;1.60;;;;;;;;;;5074223;28;20147;-37
2022/01/01 04:26:03;;;;;;;2.38;1.80;;;;;;;;;;5074115;28;20103;-37
2022/01/01 04:28:29;;;;;;;3.17;1.70;;;;;;;;;;5073801;28;20107;-37
2022/01/01 04:30:54;;;;;;;2.92;1.55;;;;;;;;;;5073771;28;20024;-37
2022/01/01 04:33:19;;;;;;;2.72;1.65;;;;;;;;;;5073678;28;20692;-37
2022/01/01 04:35:45;;;;;;;3.97;1.92;;;;;;;;;;5073834;28;20042;-38
2022/01/01 04:38:25;;;;;;;3.33;1.98;;;;;;;;;;5073378;28;20047;-37
2022/01/01 04:40:51;;;;;;;2.75;1.48;;;;;;;;;;5073516;28;20475;-37
2022/01/01 04:43:16;;;;;;;6.90;1.92;;;;;;;;;;5073549;28;20066;-37
2022/01/01 04:45:42;;;;;;;7.35;2.33;;;;;;;;;;5073527;28;20025;-38
2022/01/01 04:48:07;;;;;;;20.30;4.95;;;;;;;;;;5073440;28;20047;-38
2022/01/01 04:50:33;;;;;;;17.55;3.75;;;;;;;;;;5073364;28;20082;-40
2022/01/01 04:52:58;;;;;;;9.50;3.85;;;;;;;;;;5073316;28;20070;-37
2022/01/01 04:55:24;;;;;;;10.88;4.40;;;;;;;;;;5073448;28;20094;-37
2022/01/01 04:57:49;;;;;;;9.20;3.70;;;;;;;;;;5073263;28;20024;-38
2022/01/01 05:00:15;;;;;;;11.80;3.33;;;;;;;;;;5073292;28;20479;-37
2022/01/01 05:02:40;;;;;;;6.18;2.78;;;;;;;;;;5073534;28;20020;-38
2022/01/01 05:05:06;;;;;;;9.95;2.55;;;;;;;;;;5072798;28;20029;-37
2022/01/01 05:07:31;;;;;;;4.22;2.78;;;;;;;;;;5073384;28;20359;-38
2022/01/01 05:09:57;;;;;;;3.28;2.20;;;;;;;;;;5073006;28;20509;-37
2022/01/01 05:12:22;;;;;;;5.43;2.90;;;;;;;;;;5073310;28;20028;-37
2022/01/01 05:14:48;;;;;;;5.63;2.33;;;;;;;;;;5073303;28;20036;-38
2022/01/01 05:17:14;;;;;;;1.88;1.38;;;;;;;;;;5073209;28;20402;-37
2022/01/01 05:19:39;;;;;;;2.97;1.48;;;;;;;;;;5072713;28;20552;-37
2022/01/01 05:22:05;;;;;;;3.53;1.73;;;;;;;;;;5073058;28;20028;-38
2022/01/01 05:24:30;;;;;;;3.45;1.80;;;;;;;;;;5072813;28;20716;-37
2022/01/01 05:26:55;;;;;;;3.97;1.75;;;;;;;;;;5073042;28;20471;-37
2022/01/01 05:29:21;;;;;;;1.88;1.27;;;;;;;;;;5072570;28;20025;-38
2022/01/01 05:31:46;;;;;;;1.98;1.30;;;;;;;;;;5072991;28;20020;-37
2022/01/01 05:34:12;;;;;;;2.90;1.20;;;;;;;;;;5072499;28;20033;-37
2022/01/01 05:36:37;;;;;;;1.17;0.95;;;;;;;;;;5072859;28;20070;-38
2022/01/01 05:39:03;;;;;;;3.80;1.40;;;;;;;;;;5072307;28;20662;-37
2022/01/01 05:41:28;;;;;;;1.45;1.15;;;;;;;;;;5072226;28;20546;-37
2022/01/01 05:43:54;;;;;;;1.35;1.13;;;;;;;;;;5072473;28;20031;-38
2022/01/01 05:46:19;;;;;;;2.15;1.15;;;;;;;;;;5072312;28;20163;-38
2022/01/01 05:48:44;;;;;;;3.20;1.95;;;;;;;;;;5072530;28;20028;-37
2022/01/01 05:51:10;;;;;;;1.52;1.30;;;;;;;;;;5072138;28;20378;-37
2022/01/01 05:53:35;;;;;;;1.45;1.25;;;;;;;;;;5072306;28;20524;-38
2022/01/01 05:56:01;;;;;;;2.50;1.52;;;;;;;;;;5072035;28;20027;-37
2022/01/01 05:58:26;;;;;;;5.90;2.08;;;;;;;;;;5072190;28;20028;-37
2022/01/01 06:00:52;;;;;;;9.95;3.22;;;;;;;;;;5071920;28;20036;-37
2022/01/01 06:03:18;;;;;;;7.43;2.15;;;;;;;;;;5071904;28;20107;-37
2022/01/01 06:05:44;;;;;;;8.38;3.13;;;;;;;;;;5072054;28;20386;-37
2022/01/01 06:08:09;;;;;;;10.30;2.65;;;;;;;;;;5072093;28;20028;-38
2022/01/01 06:10:35;;;;;;;5.15;2.17;;;;;;;;;;5071820;28;20470;-38
2022/01/01 06:13:00;;;;;;;4.13;2.30;;;;;;;;;;5072054;28;20086;-37
2022/01/01 06:15:25;;;;;;;1.95;1.25;;;;;;;;;;5071866;28;20479;-37
2022/01/01 06:17:51;;;;;;;10.10;2.25;;;;;;;;;;5086844;28;20116;-37
2022/01/01 06:20:16;;;;;;;7.38;1.73;;;;;;;;;;5071575;28;20024;-38
2022/01/01 06:22:42;;;;;;;2.10;1.25;;;;;;;;;;5071690;28;20064;-37
2022/01/01 06:25:08;;;;;;;2.72;1.42;;;;;;;;;;5071899;28;20024;-37
2022/01/01 06:27:34;;;;;;;3.85;1.95;;;;;;;;;;5071931;28;20426;-38
2022/01/01 06:29:59;;;;;;;1.83;1.13;;;;;;;;;;5071512;28;20024;-37
2022/01/01 06:32:25;;;;;;;2.22;1.80;;;;;;;;;;5071742;28;20024;-37
2022/01/01 06:34:50;;;;;;;2.45;1.38;;;;;;;;;;5071570;28;20016;-38
2022/01/01 06:37:16;;;;;;;3.42;1.92;;;;;;;;;;5071602;28;20043;-37
2022/01/01 06:39:41;;;;;;;6.75;1.98;;;;;;;;;;5071191;28;20044;-38
2022/01/01 06:42:07;;;;;;;3.60;1.88;;;;;;;;;;5071460;28;20032;-37
2022/01/01 06:44:33;;;;;;;3.13;1.92;;;;;;;;;;5071490;28;20028;-38
2022/01/01 06:46:58;;;;;;;3.70;2.30;;;;;;;;;;5071350;28;20037;-37
2022/01/01 06:49:24;;;;;;;2.75;1.65;;;;;;;;;;5070013;28;20025;-37
2022/01/01 06:51:49;;;;;;;3.88;2.38;;;;;;;;;;5071309;28;20036;-37
2022/01/01 06:54:15;;;;;;;4.10;1.67;;;;;;;;;;5071209;28;20028;-38
2022/01/01 06:56:40;;;;;;;2.50;1.63;;;;;;;;;;5071310;28;20036;-37
2022/01/01 06:59:05;;;;;;;3.47;1.65;;;;;;;;;;5070930;28;20054;-37
2022/01/01 07:01:31;;;;;;;7.70;2.70;;;;;;;;;;5071176;28;20036;-37
2022/01/01 07:03:56;;;;;;;5.15;1.95;;;;;;;;;;5071317;28;20027;-38
2022/01/01 07:06:22;;;;;;;2.97;1.27;;;;;;;;;;5071134;28;20478;-38
2022/01/01 07:08:47;;;;;;;1.33;1.15;;;;;;;;;;5071293;28;20017;-37
2022/01/01 07:11:13;;;;;;;1.30;1.20;;;;;;;;;;5071057;28;20031;-37
2022/01/01 07:13:38;;;;;;;1.73;1.48;;;;;;;;;;5071457;28;20371;-37
2022/01/01 07:16:04;;;;;;;1.70;1.60;;;;;;;;;;5071003;28;20386;-37
2022/01/01 07:18:30;;;;;;;2.67;1.58;;;;;;;;;;5071184;28;20020;-37
2022/01/01 07:20:55;;;;;;;5.50;2.30;;;;;;;;;;5071019;28;20206;-37
2022/01/01 07:23:21;;;;;;;1.85;1.33;;;;;;;;;;5071202;28;20021;-37
2022/01/01 07:25:46;;;;;;;2.47;1.75;;;;;;;;;;5071135;28;20437;-37
2022/01/01 07:28:14;;;;;;;2.78;1.30;;;;;;;;;;5070970;28;20039;-37
2022/01/01 07:30:40;;;;;;;3.17;1.48;;;;;;;;;;5090807;28;20074;-37
2022/01/01 07:33:05;;;;;;;3.80;2.33;;;;;;;;;;5074965;28;20375;-37
2022/01/01 07:35:36;;;;;;;6.10;2.45;;;;;;;;;;5075038;28;20039;-38
2022/01/01 07:38:01;;;;;;;5.22;2.22;;;;;;;;;;5075103;28;20020;-38
2022/01/01 07:40:26;;;;;;;4.13;1.83;;;;;;;;;;5074460;28;20044;-37
2022/01/01 07:42:52;;;;;;;1.88;1.45;;;;;;;;;;5074712;28;20501;-37
2022/01/01 07:45:17;;;;;;;5.28;1.90;;;;;;;;;;5074965;28;20029;-38
2022/01/01 07:47:43;;;;;;;3.78;1.70;;;;;;;;;;5074665;28;20371;-38
2022/01/01 07:50:09;;;;;;;4.95;2.10;;;;;;;;;;5074646;28;20036;-38
2022/01/01 07:52:35;;;;;;;3.20;1.83;;;;;;;;;;5074643;28;20020;-37
2022/01/01 07:55:01;;;;;;;4.10;1.48;;;;;;;;;;5074614;28;20078;-38
2022/01/01 07:57:26;;;;;;;2.65;1.23;;;;;;;;;;5074730;28;20059;-37
2022/01/01 07:59:52;;;;;;;2.70;1.30;;;;;;;;;;5074323;28;20051;-37
2022/01/01 08:02:17;;;;;;;3.20;1.63;;;;;;;;;;5089981;28;20055;-37
2022/01/01 08:04:43;;;;;;;1.63;1.48;;;;;;;;;;5074368;28;20036;-37
2022/01/01 08:07:08;;;;;;;3.03;1.77;;;;;;;;;;5074435;28;20129;-37
2022/01/01 08:09:38;;;;;;;2.17;1.70;;;;;;;;;;5074471;28;20059;-37
2022/01/01 08:12:04;;;;;;;2.03;1.40;;;;;;;;;;5074071;28;20032;-37
2022/01/01 08:14:30;;;;;;;5.10;1.33;;;;;;;;;;5074190;28;20386;-37
2022/01/01 08:16:59;;;;;;;3.92;1.80;;;;;;;;;;5074182;28;20028;-37
2022/01/01 08:19:25;;;;;;;2.15;1.13;;;;;;;;;;5073900;28;20035;-37
2022/01/01 08:21:51;;;;;;;1.60;1.45;;;;;;;;;;5089935;28;20036;-42
2022/01/01 08:24:17;;;;;;;2.92;1.55;;;;;;;;;;5073813;28;20109;-38
2022/01/01 08:26:42;;;;;;;3.50;1.23;;;;;;;;;;5074239;28;20056;-37
2022/01/01 08:29:08;;;;;;;2.47;1.25;;;;;;;;;;5073763;28;20043;-37
2022/01/01 08:31:33;;;;;;;2.13;1.27;;;;;;;;;;5073748;28;20033;-37
2022/01/01 08:33:58;;;;;;;3.10;1.80;;;;;;;;;;5073837;28;20047;-37
2022/01/01 08:36:24;;;;;;;2.33;1.55;;;;;;;;;;5073720;28;20503;-37
2022/01/01 08:38:49;;;;;;;4.80;1.80;;;;;;;;;;5073528;28;20119;-38
2022/01/01 08:41:15;;;;;;;4.25;1.55;;;;;;;;;;5072832;28;20045;-37
2022/01/01 08:43:41;;;;;;;2.28;1.33;;;;;;;;;;5073892;28;20533;-37
2022/01/01 08:46:07;;;;;;;4.95;1.42;;;;;;;;;;5073478;28;20565;-38
2022/01/01 08:48:33;;;;;;;1.88;0.93;;;;;;;;;;5073832;28;20032;-37
2022/01/01 08:50:59;;;;;;;2.83;1.38;;;;;;;;;;5073764;28;20043;-37
2022/01/01 08:53:24;;;;;;;1.77;1.10;;;;;;;;;;5073356;28;20032;-38
2022/01/01 08:55:50;;;;;;;2.10;1.48;;;;;;;;;;5073389;28;20028;-37
2022/01/01 08:58:15;;;;;;;3.42;1.67;;;;;;;;;;5073265;28;20060;-37
2022/01/01 09:00:41;;;;;;;1.42;1.25;;;;;;;;;;5073250;28;20121;-37
2022/01/01 09:03:07;;;;;;;2.67;1.55;;;;;;;;;;5073204;28;20037;-37
2022/01/01 09:05:32;;;;;;;1.45;1.10;;;;;;;;;;5073371;28;20104;-38
2022/01/01 09:07:58;;;;;;;3.40;1.80;;;;;;;;;;5089040;28;20032;-37
2022/01/01 09:10:23;;;;;;;2.08;1.05;;;;;;;;;;5073042;28;20093;-37
2022/01/01 09:12:49;;;;;;;2.35;1.27;;;;;;;;;;5073098;28;20107;-37
2022/01/01 09:15:14;;;;;;;2.88;1.23;;;;;;;;;;5072865;28;20047;-37
2022/01/01 09:17:40;;;;;;;2.08;1.15;;;;;;;;;;5073250;28;20031;-37
2022/01/01 09:20:05;;;;;;;5.63;1.70;;;;;;;;;;5072995;28;20627;-37
2022/01/01 09:22:31;;;;;;;3.55;1.48;;;;;;;;;;5072882;28;20456;-37
2022/01/01 09:24:56;;;;;;;2.60;1.40;;;;;;;;;;5072890;28;20025;-37
2022/01/01 09:27:22;;;;;;;1.67;1.17;;;;;;;;;;5072702;28;20036;-37
2022/01/01 09:29:48;;;;;;;2.28;1.38;;;;;;;;;;5072592;28;20021;-37
2022/01/01 09:32:14;;;;;;;3.05;1.63;;;;;;;;;;5072712;28;20056;-37
2022/01/01 09:34:39;;;;;;;1.35;0.95;;;;;;;;;;5072894;28;20016;-37
2022/01/01 09:37:09;;;;;;;2.42;1.60;;;;;;;;;;5072512;28;20478;-37
2022/01/01 09:39:34;;;;;;;1.95;1.50;;;;;;;;;;5072411;28;20402;-38
2022/01/01 09:42:01;;;;;;;2.55;1.30;;;;;;;;;;5072697;28;20036;-37
2022/01/01 09:44:29;;;;;;;4.10;1.98;;;;;;;;;;5072374;28;20036;-37
2022/01/01 09:46:54;;;;;;;2.47;1.38;;;;;;;;;;5072415;28;20043;-37
2022/01/01 09:49:20;;;;;;;1.30;1.17;;;;;;;;;;5072328;28;20471;-38
2022/01/01 09:51:46;;;;;;;1.55;1.45;;;;;;;;;;5072147;28;20882;-37
2022/01/01 09:54:12;;;;;;;1.75;1.45;;;;;;;;;;5072172;28;20024;-37
2022/01/01 09:56:38;;;;;;;2.78;1.38;;;;;;;;;;5072263;28;20020;-37
2022/01/01 09:59:04;;;;;;;3.47;1.42;;;;;;;;;;5071953;28;20020;-37
2022/01/01 10:01:31;;;;;;;1.33;1.17;;;;;;;;;;5072039;28;20048;-37
2022/01/01 10:03:59;;;;;;;1.40;1.30;;;;;;;;;;5072318;28;20036;-38
2022/01/01 10:06:28;;;;;;;5.63;2.03;;;;;;;;;;5071960;28;20039;-38
2022/01/01 10:08:56;;;;;;;6.88;3.35;;;;;;;;;;5072127;28;20012;-37
2022/01/01 10:11:22;;;;;;;2.35;1.83;;;;;;;;;;5071776;28;20029;-38
2022/01/01 10:13:48;;;;;;;3.33;2.15;;;;;;;;;;5071956;28;20490;-37
2022/01/01 10:16:14;;;;;;;2.30;1.65;;;;;;;;;;5072039;28;20024;-37
2022/01/01 10:18:44;;;;;;;1.40;1.30;;;;;;;;;;5072070;28;20393;-37
2022/01/01 10:21:11;;;;;;;2.30;1.50;;;;;;;;;;5071525;28;20044;-39
2022/01/01 10:23:38;;;;;;;7.53;1.70;;;;;;;;;;5071775;28;20375;-38
2022/01/01 10:28:54;;;;;;;4.00;1.80;;;;;;;;;;5071678;28;20029;-38
2022/01/01 10:31:20;;;;;;;2.53;1.63;;;;;;;;;;5071461;28;20019;-39
2022/01/01 10:33:46;;;;;;;2.28;1.50;;;;;;;;;;5071591;28;20070;-37
2022/01/01 10:36:13;;;;;;;2.15;1.00;;;;;;;;;;5071556;28;20012;-37
2022/01/01 10:38:38;;;;;;;2.85;1.80;;;;;;;;;;5086975;28;20032;-37
2022/01/01 10:41:09;;;;;;;3.28;1.80;;;;;;;;;;5071334;28;20036;-38
2022/01/01 10:43:36;;;;;;;1.98;1.10;;;;;;;;;;5071465;28;20494;-37
2022/01/01 10:46:02;;;;;;;3.00;1.20;;;;;;;;;;5071481;28;20032;-37
2022/01/01 10:48:41;;;;;;;0.68;0.60;;;;;;;;;;5071452;28;20147;-37
2022/01/01 10:51:08;;;;;;;1.10;0.75;;;;;;;;;;5071612;28;20082;-38
2022/01/01 10:53:34;;;;;;;0.93;0.85;;;;;;;;;;5071406;28;20027;-38
2022/01/01 10:56:21;;;;;;;1.88;1.38;;;;;;;;;;5071536;28;20382;-38
2022/01/01 10:58:57;;;;;;;1.98;1.23;;;;;;;;;;5071327;28;20025;-37
2022/01/01 11:01:23;;;;;;;1.35;1.25;;;;;;;;;;5071191;28;20036;-37
2022/01/01 11:03:49;;;;;;;2.25;1.00;;;;;;;;;;5070725;28;20027;-37
2022/01/01 11:06:17;;;;;;;2.47;1.13;;;;;;;;;;5071476;28;20024;-37
2022/01/01 11:08:43;;;;;;;2.05;1.02;;;;;;;;;;5069883;28;20052;-37
2022/01/01 11:11:10;;;;;;;1.20;1.08;;;;;;;;;;5071320;28;20089;-37
2022/01/01 11:13:36;;;;;;;6.70;1.33;;;;;;;;;;5069984;28;20024;-38
2022/01/01 11:16:02;;;;;;;1.20;0.93;;;;;;;;;;5071049;28;20364;-38
2022/01/01 11:18:28;;;;;;;1.38;0.90;;;;;;;;;;5071052;28;20028;-38
2022/01/01 11:20:54;;;;;;;3.25;1.23;;;;;;;;;;5071357;28;20157;-38
2022/01/01 11:23:20;;;;;;;1.98;1.50;;;;;;;;;;5070945;28;20020;-38
2022/01/01 11:25:46;;;;;;;2.42;1.45;;;;;;;;;;5071103;28;20098;-38
2022/01/01 11:28:13;;;;;;;2.08;1.48;;;;;;;;;;5071019;28;20467;-38
2022/01/01 11:30:44;;;;;;;0.77;0.73;;;;;;;;;;5070865;28;20119;-37
2022/01/01 11:33:11;;;;;;;1.83;1.13;;;;;;;;;;5071238;28;20060;-38
2022/01/01 11:35:37;;;;;;;1.42;1.00;;;;;;;;;;5070952;28;20116;-38
2022/01/01 11:38:03;;;;;;;2.05;1.10;;;;;;;;;;5070975;28;20028;-37
2022/01/01 11:40:52;;;;;;;1.27;0.98;;;;;;;;;;5070527;28;20560;-37
2022/01/01 11:43:36;;;;;;;1.15;0.70;;;;;;;;;;5065315;28;20045;-38
2022/01/01 11:46:14;;;;;;;2.30;1.00;;;;;;;;;;5071130;28;20051;-37
2022/01/01 11:48:43;;;;;;;2.47;1.10;;;;;;;;;;5070814;28;20086;-38
2022/01/01 11:51:29;;;;;;;1.08;0.93;;;;;;;;;;5070696;28;20043;-38
2022/01/01 11:54:06;;;;;;;1.83;1.13;;;;;;;;;;5070721;28;20463;-38
2022/01/01 11:56:50;;;;;;;2.67;1.63;;;;;;;;;;5070778;28;20110;-38
2022/01/01 11:59:27;;;;;;;2.35;1.05;;;;;;;;;;5070564;28;20395;-38
2022/01/01 12:02:03;;;;;;;2.88;1.40;;;;;;;;;;5070621;28;20062;-37
2022/01/01 12:04:43;;;;;;;1.52;1.40;;;;;;;;;;5070974;28;20025;-37
2022/01/01 12:07:20;;;;;;;2.60;1.63;;;;;;;;;;5070456;28;20037;-38
2022/01/01 12:09:49;;;;;;;1.42;1.10;;;;;;;;;;5070622;28;20036;-38
2022/01/01 12:12:17;;;;;;;2.25;1.20;;;;;;;;;;5070671;28;20060;-38
2022/01/01 12:14:44;;;;;;;2.85;1.27;;;;;;;;;;5070627;28;20383;-38
2022/01/01 12:17:15;;;;;;;3.03;1.52;;;;;;;;;;5073694;28;20071;-38
2022/01/01 12:19:42;;;;;;;2.88;1.27;;;;;;;;;;5074038;28;20509;-38
2022/01/01 12:22:09;;;;;;;1.52;1.23;;;;;;;;;;5073790;28;20519;-37
2022/01/01 12:24:36;;;;;;;2.58;1.20;;;;;;;;;;5074027;28;20089;-38
2022/01/01 12:27:08;;;;;;;2.05;1.40;;;;;;;;;;5074205;28;20036;-38
2022/01/01 12:29:34;;;;;;;2.53;1.63;;;;;;;;;;5073852;28;20029;-38
2022/01/01 12:32:00;;;;;;;3.42;2.25;;;;;;;;;;5073959;28;20135;-38
2022/01/01 12:34:27;;;;;;;2.72;0.77;;;;;;;;;;5073774;28;20576;-38
2022/01/01 12:36:55;;;;;;;1.48;0.70;;;;;;;;;;5074024;28;20013;-38
2022/01/01 12:39:21;;;;;;;2.10;0.68;;;;;;;;;;5073516;28;20811;-37
2022/01/01 12:41:48;;;;;;;1.75;0.95;;;;;;;;;;5073840;28;20426;-38
2022/01/01 12:44:13;;;;;;;2.70;1.45;;;;;;;;;;5073848;28;20047;-38
2022/01/01 12:46:45;;;;;;;0.80;0.50;;;;;;;;;;5073518;28;20111;-37
2022/01/01 12:49:11;;;;;;;0.80;0.60;;;;;;;;;;5073429;28;20082;-38
2022/01/01 12:51:37;;;;;;;2.05;0.82;;;;;;;;;;5073538;28;20025;-37
2022/01/01 12:54:07;;;;;;;2.17;0.82;;;;;;;;;;5073539;28;20056;-37
2022/01/01 12:56:34;;;;;;;1.27;0.57;;;;;;;;;;5073671;28;20028;-38
2022/01/01 12:59:05;;;;;;;1.33;0.75;;;;;;;;;;5073200;28;20074;-38
2022/01/01 13:01:32;;;;;;;3.53;0.77;;;;;;;;;;5073142;28;20140;-38
2022/01/01 13:04:02;;;;;;;1.02;0.73;;;;;;;;;;5073197;28;20485;-37
2022/01/01 13:06:32;;;;;;;1.15;0.80;;;;;;;;;;5073398;28;20094;-37
2022/01/01 13:09:04;;;;;;;1.70;0.80;;;;;;;;;;5073094;28;20037;-37
2022/01/01 13:11:29;;;;;;;3.85;0.82;;;;;;;;;;5073068;28;20119;-38
2022/01/01 13:13:55;;;;;;;2.10;1.02;;;;;;;;;;5073183;28;20112;-38
2022/01/01 13:16:21;;;;;;;1.55;1.00;;;;;;;;;;5072746;28;20107;-37
2022/01/01 13:18:48;;;;;;;2.15;1.10;;;;;;;;;;5073029;28;20107;-37
2022/01/01 13:21:13;;;;;;;1.85;0.80;;;;;;;;;;5072814;28;20040;-38
2022/01/01 13:23:39;;;;;;;1.17;1.00;;;;;;;;;;5072784;28;20051;-37
2022/01/01 13:26:05;;;;;;;3.95;1.33;;;;;;;;;;5072547;28;20063;-37
2022/01/01 13:28:33;;;;;;;2.03;1.13;;;;;;;;;;5072631;28;20103;-37
2022/01/01 13:31:00;;;;;;;1.30;1.05;;;;;;;;;;5072729;28;20135;-38
2022/01/01 13:33:26;;;;;;;2.53;1.08;;;;;;;;;;5072603;28;20515;-38
2022/01/01 13:35:59;;;;;;;1.85;1.00;;;;;;;;;;5072982;28;20040;-37
2022/01/01 13:38:31;;;;;;;1.43;0.83;;;;;;;;;;5072263;28;20471;-38
2022/01/01 13:41:05;;;;;;;1.63;0.75;;;;;;;;;;5072516;28;20503;-38
2022/01/01 13:43:33;;;;;;;1.35;0.80;;;;;;;;;;5072396;28;20037;-38
2022/01/01 13:46:06;;;;;;;0.70;0.70;;;;;;;;;;5072394;28;20459;-38
2022/01/01 13:48:31;;;;;;;;;;;;;;;;;;5072807;28;20029;-37
2022/01/01 13:51:05;;;;;;;2.42;1.00;;;;;;;;;;5072640;28;19912;-38
2022/01/01 13:53:31;;;;;;;0.98;0.68;;;;;;;;;;5072202;28;20391;-38
2022/01/01 13:55:56;;;;;;;2.67;1.77;;;;;;;;;;5072438;28;20085;-38
2022/01/01 13:58:22;;;;;;;2.90;1.33;;;;;;;;;;5072161;28;20442;-38
2022/01/01 14:00:55;;;;;;;2.38;1.17;;;;;;;;;;5071915;28;20175;-38
2022/01/01 14:03:25;;;;;;;0.55;0.55;;;;;;;;;;5071995;28;20062;-38
2022/01/01 14:05:54;;;;;;;2.30;1.08;;;;;;;;;;5072327;28;20043;-38
2022/01/01 14:08:21;;;;;;;3.33;1.33;;;;;;;;;;5072212;28;20482;-37
2022/01/01 14:11:00;;;;;;;0.75;0.73;;;;;;;;;;5071912;28;20028;-37
2022/01/01 14:13:37;;;;;;;1.33;1.00;;;;;;;;;;5071853;28;21144;-37
2022/01/01 14:16:23;;;;;;;1.88;0.98;;;;;;;;;;5071907;28;20066;-38
2022/01/01 14:18:52;;;;;;;2.13;0.77;;;;;;;;;;5071750;28;20037;-38
2022/01/01 14:21:17;;;;;;;1.33;1.00;;;;;;;;;;5071525;28;20071;-38
2022/01/01 14:23:45;;;;;;;1.92;0.73;;;;;;;;;;5070509;28;20463;-38
2022/01/01 14:26:15;;;;;;;0.90;0.80;;;;;;;;;;5071655;28;20012;-38
2022/01/01 14:28:41;;;;;;;1.25;0.85;;;;;;;;;;5071519;28;20050;-37
2022/01/01 14:31:06;;;;;;;2.08;1.02;;;;;;;;;;5070475;28;20127;-37
2022/01/01 14:33:32;;;;;;;1.17;0.90;;;;;;;;;;5071845;28;20478;-37
2022/01/01 14:36:08;;;;;;;1.00;0.85;;;;;;;;;;5071874;28;20032;-38
2022/01/01 14:38:39;;;;;;;2.38;1.65;;;;;;;;;;5070512;28;20293;-38
2022/01/01 14:41:05;;;;;;;0.95;0.75;;;;;;;;;;5071528;28;20040;-37
2022/01/01 14:43:31;;;;;;;1.75;1.10;;;;;;;;;;5071417;28;20016;-38